PWSweather.com
Personal Weather Stations
Station Observations
ISARDEGN8
Quartu Sant ElenaIT 09045

Quartu Sant ElenaIT 09045

Lat: 39.2353026, Lon: 9.1862691

Elevation: 70

Station Type: Davis Vantage Pro2 Wireless

http://quartuweather.altervista.org/

Latest ConditionsUpdated 9:10:01 AM GMT+01:01 Saturday, Jan 18, 2020
Currently Today's Max Today's Min Today's Average
Temperature 52.7°F11.5°C 53.1°F11.7°C 50.7°F10.4°C 51.8°F11.0°C
Dew Point 45.3°F7.4°C 48.5°F9.2°C 45.0°F7.2°C 46.5°F8.1°C
Winds 6.9 mph WNW11.1 kmh WNW 9.2 mph -14.8 kmh - - 3.8 mph 6.1 kmh
Wind Gusts 8.1 mph13.0 kmh 13.8 mph22.2 kmh - -
Humidity 76% 87% 76% 82%
Pressure 30.36 in1028.1 mb 30.36 in1028.1 mb 30.32 in1026.8 mb -
Hour Temp Dew Point Humidity Winds Wind Gusts Pressure Precip Precip Rate Daily Precip Total
09:10 AM 52.7°F11.5°C 45.3°F7.4°C 76% 6.9 mph WNW11.1 kmh WNW 8.1 mph13.0 kmh 30.36 in1028.1 mb - 0.00 in0.0 mm 0.00 in0.0 mm
09:00 AM 52.5°F11.4°C 45.2°F7.3°C 76% 6.9 mph WNW11.1 kmh WNW 10.4 mph16.7 kmh 30.36 in1028.1 mb - 0.00 in0.0 mm 0.00 in0.0 mm
08:55 AM 52.4°F11.3°C 45.4°F7.4°C 77% 9.2 mph WNW14.8 kmh WNW 11.5 mph18.5 kmh 30.36 in1028.1 mb - 0.00 in0.0 mm 0.00 in0.0 mm
08:50 AM 52.3°F11.3°C 45.3°F7.4°C 77% 9.2 mph WNW14.8 kmh WNW 11.5 mph18.5 kmh 30.36 in1028.1 mb - 0.00 in0.0 mm 0.00 in0.0 mm
08:45 AM 52.2°F11.2°C 45.2°F7.3°C 77% 6.9 mph W11.1 kmh W 10.4 mph16.7 kmh 30.36 in1028.1 mb - 0.00 in0.0 mm 0.00 in0.0 mm
08:40 AM 52.0°F11.1°C 45.0°F7.2°C 77% 9.2 mph W14.8 kmh W 10.4 mph16.7 kmh 30.36 in1028.1 mb - 0.00 in0.0 mm 0.00 in0.0 mm
08:35 AM 51.8°F11.0°C 45.2°F7.3°C 78% 6.9 mph WNW11.1 kmh WNW 11.5 mph18.5 kmh 30.36 in1028.1 mb - 0.00 in0.0 mm 0.00 in0.0 mm
08:30 AM 51.6°F10.9°C 45.0°F7.2°C 78% 8.1 mph WNW13.0 kmh WNW 10.4 mph16.7 kmh 30.36 in1028.1 mb - 0.00 in0.0 mm 0.00 in0.0 mm
08:25 AM 51.5°F10.8°C 45.2°F7.3°C 79% 5.8 mph WNW9.3 kmh WNW 11.5 mph18.5 kmh 30.36 in1028.1 mb - 0.00 in0.0 mm 0.00 in0.0 mm
08:20 AM 51.4°F10.8°C 45.1°F7.3°C 79% 8.1 mph WNW13.0 kmh WNW 9.2 mph14.8 kmh 30.36 in1028.1 mb - 0.00 in0.0 mm 0.00 in0.0 mm
08:15 AM 51.4°F10.8°C 45.1°F7.3°C 79% 5.8 mph WNW9.3 kmh WNW 11.5 mph18.5 kmh 30.36 in1028.1 mb - 0.00 in0.0 mm 0.00 in0.0 mm
08:10 AM 51.3°F10.7°C 45.0°F7.2°C 79% 5.8 mph WNW9.3 kmh WNW 11.5 mph18.5 kmh 30.36 in1028.1 mb - 0.00 in0.0 mm 0.00 in0.0 mm
08:00 AM 51.2°F10.7°C 45.2°F7.3°C 80% 4.6 mph WNW7.4 kmh WNW 9.2 mph14.8 kmh 30.36 in1028.1 mb - 0.00 in0.0 mm 0.00 in0.0 mm
07:55 AM 51.2°F10.7°C 45.2°F7.3°C 80% 3.5 mph NW5.6 kmh NW 6.9 mph11.1 kmh 30.36 in1028.1 mb - 0.00 in0.0 mm 0.00 in0.0 mm
07:50 AM 51.1°F10.6°C 45.1°F7.3°C 80% 4.6 mph NW7.4 kmh NW 5.8 mph9.3 kmh 30.36 in1028.1 mb - 0.00 in0.0 mm 0.00 in0.0 mm
07:45 AM 50.8°F10.4°C 45.2°F7.3°C 81% 3.5 mph NW5.6 kmh NW 4.6 mph7.4 kmh 30.36 in1028.1 mb - 0.00 in0.0 mm 0.00 in0.0 mm
07:40 AM 50.8°F10.4°C 45.1°F7.3°C 81% 4.6 mph NNW7.4 kmh NNW 8.1 mph13.0 kmh 30.36 in1028.1 mb - 0.00 in0.0 mm 0.00 in0.0 mm
07:35 AM 50.8°F10.4°C 45.2°F7.3°C 81% 5.8 mph NW9.3 kmh NW 10.4 mph16.7 kmh 30.36 in1028.1 mb - 0.00 in0.0 mm 0.00 in0.0 mm
07:30 AM 50.9°F10.5°C 45.2°F7.3°C 81% 3.5 mph NW5.6 kmh NW 3.5 mph5.6 kmh 30.36 in1028.1 mb - 0.00 in0.0 mm 0.00 in0.0 mm
07:25 AM 50.9°F10.5°C 45.3°F7.4°C 81% 4.6 mph NW7.4 kmh NW 8.1 mph13.0 kmh 30.36 in1028.1 mb - 0.00 in0.0 mm 0.00 in0.0 mm
07:20 AM 51.0°F10.6°C 45.4°F7.4°C 81% 4.6 mph NW7.4 kmh NW 10.4 mph16.7 kmh 30.36 in1028.1 mb - 0.00 in0.0 mm 0.00 in0.0 mm
07:15 AM 51.1°F10.6°C 45.5°F7.5°C 81% 4.6 mph NW7.4 kmh NW 3.5 mph5.6 kmh 30.36 in1028.1 mb - 0.00 in0.0 mm 0.00 in0.0 mm
07:10 AM 51.1°F10.6°C 45.5°F7.5°C 81% 3.5 mph NW5.6 kmh NW 5.8 mph9.3 kmh 30.36 in1028.1 mb - 0.00 in0.0 mm 0.00 in0.0 mm
07:00 AM 51.0°F10.6°C 45.7°F7.6°C 82% 3.5 mph WNW5.6 kmh WNW 3.5 mph5.6 kmh 30.35 in1027.8 mb - 0.00 in0.0 mm 0.00 in0.0 mm
06:55 AM 51.0°F10.6°C 45.7°F7.6°C 82% 3.5 mph NW5.6 kmh NW 10.4 mph16.7 kmh 30.35 in1027.8 mb - 0.00 in0.0 mm 0.00 in0.0 mm
06:50 AM 51.1°F10.6°C 45.8°F7.7°C 82% 4.6 mph NW7.4 kmh NW 6.9 mph11.1 kmh 30.35 in1027.8 mb - 0.00 in0.0 mm 0.00 in0.0 mm
06:45 AM 51.1°F10.6°C 45.8°F7.7°C 82% 3.5 mph NW5.6 kmh NW 5.8 mph9.3 kmh 30.35 in1027.8 mb - 0.00 in0.0 mm 0.00 in0.0 mm
06:40 AM 51.1°F10.6°C 45.8°F7.7°C 82% 3.5 mph NNW5.6 kmh NNW 5.8 mph9.3 kmh 30.35 in1027.8 mb - 0.00 in0.0 mm 0.00 in0.0 mm
06:35 AM 51.1°F10.6°C 45.8°F7.7°C 82% 4.6 mph NW7.4 kmh NW 10.4 mph16.7 kmh 30.35 in1027.8 mb - 0.00 in0.0 mm 0.00 in0.0 mm
06:30 AM 51.1°F10.6°C 45.8°F7.7°C 82% 3.5 mph NW5.6 kmh NW 4.6 mph7.4 kmh 30.35 in1027.8 mb - 0.00 in0.0 mm 0.00 in0.0 mm
06:25 AM 51.2°F10.7°C 45.9°F7.7°C 82% 3.5 mph NW5.6 kmh NW 8.1 mph13.0 kmh 30.35 in1027.8 mb - 0.00 in0.0 mm 0.00 in0.0 mm
06:20 AM 51.3°F10.7°C 46.0°F7.8°C 82% 3.5 mph NW5.6 kmh NW 8.1 mph13.0 kmh 30.34 in1027.4 mb - 0.00 in0.0 mm 0.00 in0.0 mm
06:15 AM 51.3°F10.7°C 46.0°F7.8°C 82% 3.5 mph NW5.6 kmh NW 5.8 mph9.3 kmh 30.34 in1027.4 mb - 0.00 in0.0 mm 0.00 in0.0 mm
06:10 AM 51.4°F10.8°C 46.1°F7.8°C 82% 3.5 mph NW5.6 kmh NW 5.8 mph9.3 kmh 30.34 in1027.4 mb - 0.00 in0.0 mm 0.00 in0.0 mm
06:00 AM 51.4°F10.8°C 46.1°F7.8°C 82% 5.8 mph WNW9.3 kmh WNW 10.4 mph16.7 kmh 30.34 in1027.4 mb - 0.00 in0.0 mm 0.00 in0.0 mm
05:55 AM 51.5°F10.8°C 45.8°F7.7°C 81% 5.8 mph NW9.3 kmh NW 11.5 mph18.5 kmh 30.33 in1027.1 mb - 0.00 in0.0 mm 0.00 in0.0 mm
05:50 AM 51.5°F10.8°C 45.9°F7.7°C 81% 4.6 mph WNW7.4 kmh WNW 8.1 mph13.0 kmh 30.33 in1027.1 mb - 0.00 in0.0 mm 0.00 in0.0 mm
05:45 AM 51.7°F10.9°C 46.0°F7.8°C 81% 6.9 mph NW11.1 kmh NW 10.4 mph16.7 kmh 30.33 in1027.1 mb - 0.00 in0.0 mm 0.00 in0.0 mm
05:40 AM 51.8°F11.0°C 45.8°F7.7°C 80% 5.8 mph WNW9.3 kmh WNW 9.2 mph14.8 kmh 30.33 in1027.1 mb - 0.00 in0.0 mm 0.00 in0.0 mm
05:35 AM 52.1°F11.2°C 46.1°F7.8°C 80% 6.9 mph WNW11.1 kmh WNW 11.5 mph18.5 kmh 30.33 in1027.1 mb - 0.00 in0.0 mm 0.00 in0.0 mm
05:30 AM 52.3°F11.3°C 46.3°F7.9°C 80% 8.1 mph WNW13.0 kmh WNW 12.7 mph20.4 kmh 30.32 in1026.8 mb - 0.00 in0.0 mm 0.00 in0.0 mm
05:25 AM 52.4°F11.3°C 46.4°F8.0°C 80% 8.1 mph WNW13.0 kmh WNW 11.5 mph18.5 kmh 30.33 in1027.1 mb - 0.00 in0.0 mm 0.00 in0.0 mm
05:20 AM 52.6°F11.4°C 46.3°F7.9°C 79% 6.9 mph WNW11.1 kmh WNW 9.2 mph14.8 kmh 30.33 in1027.1 mb - 0.00 in0.0 mm 0.00 in0.0 mm
05:15 AM 52.8°F11.6°C 46.4°F8.0°C 79% 9.2 mph NW14.8 kmh NW 13.8 mph22.2 kmh 30.32 in1026.8 mb - 0.00 in0.0 mm 0.00 in0.0 mm
05:10 AM 52.8°F11.6°C 46.4°F8.0°C 79% 9.2 mph WNW14.8 kmh WNW 9.2 mph14.8 kmh 30.32 in1026.8 mb - 0.00 in0.0 mm 0.00 in0.0 mm
05:00 AM 52.7°F11.5°C 46.7°F8.2°C 80% 9.2 mph WNW14.8 kmh WNW 13.8 mph22.2 kmh 30.32 in1026.8 mb - 0.00 in0.0 mm 0.00 in0.0 mm
04:55 AM 52.8°F11.6°C 46.8°F8.2°C 80% 5.8 mph WNW9.3 kmh WNW 6.9 mph11.1 kmh 30.33 in1027.1 mb - 0.00 in0.0 mm 0.00 in0.0 mm
04:50 AM 52.7°F11.5°C 47.0°F8.3°C 81% 6.9 mph WNW11.1 kmh WNW 10.4 mph16.7 kmh 30.33 in1027.1 mb - 0.00 in0.0 mm 0.00 in0.0 mm
04:45 AM 52.8°F11.6°C 47.1°F8.4°C 81% 5.8 mph WNW9.3 kmh WNW 9.2 mph14.8 kmh 30.33 in1027.1 mb - 0.00 in0.0 mm 0.00 in0.0 mm
04:40 AM 52.9°F11.6°C 47.2°F8.4°C 81% 5.8 mph WNW9.3 kmh WNW 11.5 mph18.5 kmh 30.33 in1027.1 mb - 0.00 in0.0 mm 0.00 in0.0 mm
04:35 AM 53.0°F11.7°C 47.3°F8.5°C 81% 6.9 mph WNW11.1 kmh WNW 10.4 mph16.7 kmh 30.33 in1027.1 mb - 0.00 in0.0 mm 0.00 in0.0 mm
04:30 AM 53.0°F11.7°C 47.3°F8.5°C 81% 4.6 mph NW7.4 kmh NW 10.4 mph16.7 kmh 30.33 in1027.1 mb - 0.00 in0.0 mm 0.00 in0.0 mm
04:25 AM 53.1°F11.7°C 47.4°F8.6°C 81% 2.3 mph W3.7 kmh W 4.6 mph7.4 kmh 30.33 in1027.1 mb - 0.00 in0.0 mm 0.00 in0.0 mm
04:20 AM 53.1°F11.7°C 47.7°F8.7°C 82% 5.8 mph NW9.3 kmh NW 9.2 mph14.8 kmh 30.33 in1027.1 mb - 0.00 in0.0 mm 0.00 in0.0 mm
04:15 AM 53.1°F11.7°C 47.7°F8.7°C 82% 4.6 mph WNW7.4 kmh WNW 10.4 mph16.7 kmh 30.33 in1027.1 mb - 0.00 in0.0 mm 0.00 in0.0 mm
04:10 AM 52.8°F11.6°C 48.1°F8.9°C 84% 6.9 mph WNW11.1 kmh WNW 9.2 mph14.8 kmh 30.34 in1027.4 mb - 0.00 in0.0 mm 0.00 in0.0 mm
04:00 AM 52.6°F11.4°C 48.2°F9.0°C 85% 3.5 mph NW5.6 kmh NW 6.9 mph11.1 kmh 30.34 in1027.4 mb - 0.00 in0.0 mm 0.00 in0.0 mm
03:55 AM 52.6°F11.4°C 48.5°F9.2°C 86% 4.6 mph NW7.4 kmh NW 9.2 mph14.8 kmh 30.34 in1027.4 mb - 0.00 in0.0 mm 0.00 in0.0 mm
03:50 AM 52.4°F11.3°C 48.3°F9.1°C 86% 6.9 mph WNW11.1 kmh WNW 11.5 mph18.5 kmh 30.34 in1027.4 mb - 0.00 in0.0 mm 0.00 in0.0 mm
03:45 AM 52.3°F11.3°C 48.2°F9.0°C 86% 4.6 mph NW7.4 kmh NW 8.1 mph13.0 kmh 30.34 in1027.4 mb - 0.00 in0.0 mm 0.00 in0.0 mm
03:40 AM 52.3°F11.3°C 48.2°F9.0°C 86% 5.8 mph NW9.3 kmh NW 11.5 mph18.5 kmh 30.34 in1027.4 mb - 0.00 in0.0 mm 0.00 in0.0 mm
03:35 AM 52.3°F11.3°C 48.5°F9.2°C 87% 3.5 mph WNW5.6 kmh WNW 3.5 mph5.6 kmh 30.34 in1027.4 mb - 0.00 in0.0 mm 0.00 in0.0 mm
03:30 AM 52.3°F11.3°C 48.2°F9.0°C 86% 3.5 mph NW5.6 kmh NW 3.5 mph5.6 kmh 30.34 in1027.4 mb - 0.00 in0.0 mm 0.00 in0.0 mm
03:25 AM 52.3°F11.3°C 48.5°F9.2°C 87% 2.3 mph NNW3.7 kmh NNW 3.5 mph5.6 kmh 30.34 in1027.4 mb - 0.00 in0.0 mm 0.00 in0.0 mm
03:20 AM 52.1°F11.2°C 48.3°F9.1°C 87% 3.5 mph NNW5.6 kmh NNW 4.6 mph7.4 kmh 30.34 in1027.4 mb - 0.00 in0.0 mm 0.00 in0.0 mm
03:15 AM 51.9°F11.1°C 47.9°F8.8°C 86% 3.5 mph NNW5.6 kmh NNW 4.6 mph7.4 kmh 30.34 in1027.4 mb - 0.00 in0.0 mm 0.00 in0.0 mm
03:10 AM 51.9°F11.1°C 47.8°F8.8°C 86% 2.3 mph NW3.7 kmh NW 4.6 mph7.4 kmh 30.34 in1027.4 mb - 0.00 in0.0 mm 0.00 in0.0 mm
03:00 AM 51.9°F11.1°C 48.2°F9.0°C 87% 4.6 mph NW7.4 kmh NW 9.2 mph14.8 kmh 30.34 in1027.4 mb - 0.00 in0.0 mm 0.00 in0.0 mm
02:55 AM 51.7°F10.9°C 47.6°F8.7°C 86% 1.2 mph WNW1.9 kmh WNW 3.5 mph5.6 kmh 30.34 in1027.4 mb - 0.00 in0.0 mm 0.00 in0.0 mm
02:50 AM 51.6°F10.9°C 47.9°F8.8°C 87% 2.3 mph NW3.7 kmh NW 3.5 mph5.6 kmh 30.34 in1027.4 mb - 0.00 in0.0 mm 0.00 in0.0 mm
02:45 AM 51.2°F10.7°C 47.4°F8.6°C 87% 3.5 mph WNW5.6 kmh WNW 4.6 mph7.4 kmh 30.34 in1027.4 mb - 0.00 in0.0 mm 0.00 in0.0 mm
02:40 AM 51.0°F10.6°C 46.9°F8.3°C 86% 1.2 mph NW1.9 kmh NW 3.5 mph5.6 kmh 30.34 in1027.4 mb - 0.00 in0.0 mm 0.00 in0.0 mm
02:35 AM 51.0°F10.6°C 47.0°F8.3°C 86% 1.2 mph NW1.9 kmh NW 1.2 mph1.9 kmh 30.34 in1027.4 mb - 0.00 in0.0 mm 0.00 in0.0 mm
02:30 AM 51.0°F10.6°C 47.0°F8.3°C 86% 1.2 mph NW1.9 kmh NW 3.5 mph5.6 kmh 30.34 in1027.4 mb - 0.00 in0.0 mm 0.00 in0.0 mm
02:25 AM 50.8°F10.4°C 46.8°F8.2°C 86% 2.3 mph NNW3.7 kmh NNW 3.5 mph5.6 kmh 30.34 in1027.4 mb - 0.00 in0.0 mm 0.00 in0.0 mm
02:20 AM 50.7°F10.4°C 46.7°F8.2°C 86% Calm Calm -- 30.33 in1027.1 mb - 0.00 in0.0 mm 0.00 in0.0 mm
02:15 AM 50.7°F10.4°C 46.7°F8.2°C 86% 1.2 mph N1.9 kmh N 2.3 mph3.7 kmh 30.33 in1027.1 mb - 0.00 in0.0 mm 0.00 in0.0 mm
02:10 AM 50.7°F10.4°C 46.7°F8.2°C 86% Calm Calm -- 30.33 in1027.1 mb - 0.00 in0.0 mm 0.00 in0.0 mm
02:00 AM 50.8°F10.4°C 46.8°F8.2°C 86% 2.3 mph N3.7 kmh N 3.5 mph5.6 kmh 30.33 in1027.1 mb - 0.00 in0.0 mm 0.00 in0.0 mm
01:55 AM 50.8°F10.4°C 46.5°F8.1°C 85% Calm Calm -- 30.33 in1027.1 mb - 0.00 in0.0 mm 0.00 in0.0 mm
01:50 AM 50.8°F10.4°C 46.5°F8.1°C 85% Calm Calm -- 30.33 in1027.1 mb - 0.00 in0.0 mm 0.00 in0.0 mm
01:45 AM 50.8°F10.4°C 46.5°F8.1°C 85% Calm Calm -- 30.33 in1027.1 mb - 0.00 in0.0 mm 0.00 in0.0 mm
01:40 AM 50.8°F10.4°C 46.1°F7.8°C 84% Calm Calm -- 30.33 in1027.1 mb - 0.00 in0.0 mm 0.00 in0.0 mm
01:35 AM 50.9°F10.5°C 46.2°F7.9°C 84% Calm Calm -- 30.34 in1027.4 mb - 0.00 in0.0 mm 0.00 in0.0 mm
01:30 AM 51.0°F10.6°C 46.3°F7.9°C 84% Calm Calm -- 30.34 in1027.4 mb - 0.00 in0.0 mm 0.00 in0.0 mm
01:25 AM 51.2°F10.7°C 46.5°F8.1°C 84% Calm Calm -- 30.34 in1027.4 mb - 0.00 in0.0 mm 0.00 in0.0 mm
01:20 AM 51.2°F10.7°C 46.5°F8.1°C 84% Calm Calm -- 30.34 in1027.4 mb - 0.00 in0.0 mm 0.00 in0.0 mm
01:15 AM 51.4°F10.8°C 46.4°F8.0°C 83% 2.3 mph NW3.7 kmh NW 3.5 mph5.6 kmh 30.34 in1027.4 mb - 0.00 in0.0 mm 0.00 in0.0 mm
01:10 AM 51.5°F10.8°C 46.5°F8.1°C 83% Calm Calm -- 30.34 in1027.4 mb - 0.00 in0.0 mm 0.00 in0.0 mm
01:00 AM 51.8°F11.0°C 46.4°F8.0°C 82% Calm Calm -- 30.34 in1027.4 mb - 0.00 in0.0 mm 0.00 in0.0 mm
12:55 AM 51.9°F11.1°C 46.6°F8.1°C 82% Calm Calm -- 30.34 in1027.4 mb - 0.00 in0.0 mm 0.00 in0.0 mm
12:50 AM 52.0°F11.1°C 46.7°F8.2°C 82% Calm Calm -- 30.34 in1027.4 mb - 0.00 in0.0 mm 0.00 in0.0 mm
12:45 AM 52.1°F11.2°C 46.8°F8.2°C 82% Calm Calm -- 30.35 in1027.8 mb - 0.00 in0.0 mm 0.00 in0.0 mm
12:40 AM 52.3°F11.3°C 47.0°F8.3°C 82% Calm Calm -- 30.35 in1027.8 mb - 0.00 in0.0 mm 0.00 in0.0 mm
12:35 AM 52.5°F11.4°C 47.1°F8.4°C 82% Calm Calm -- 30.36 in1028.1 mb - 0.00 in0.0 mm 0.00 in0.0 mm
12:30 AM 52.6°F11.4°C 47.3°F8.5°C 82% Calm Calm -- 30.36 in1028.1 mb - 0.00 in0.0 mm 0.00 in0.0 mm
12:25 AM 52.7°F11.5°C 47.4°F8.6°C 82% Calm Calm -- 30.36 in1028.1 mb - 0.00 in0.0 mm 0.00 in0.0 mm
12:20 AM 52.6°F11.4°C 47.3°F8.5°C 82% Calm Calm 1.2 mph1.9 kmh 30.36 in1028.1 mb - 0.00 in0.0 mm 0.00 in0.0 mm
12:15 AM 52.6°F11.4°C 47.2°F8.4°C 82% Calm Calm -- 30.36 in1028.1 mb - 0.00 in0.0 mm 0.00 in0.0 mm
12:10 AM 52.5°F11.4°C 47.2°F8.4°C 82% Calm Calm -- 30.36 in1028.1 mb - 0.00 in0.0 mm 0.00 in0.0 mm
12:00 AM 52.4°F11.3°C 47.4°F8.6°C 83% Calm Calm -- 30.36 in1028.1 mb - 0.00 in0.0 mm 0.00 in0.0 mm